Terminal Aerodrome Forecast
Issued by NWS

Home | Current Version | Previous Version | Graphics & Text | Print | Product List | Glossary On
Versions: 1 2 3 4 5 6 7 8 9 10 11 12 13
513
FTUS45 KGGW 232320
TAFSDY
TAF
KSDY 232320Z 2400/2424 10013G24KT P6SM OVC010
     FM240600 10008KT 4SM -SHRA OVC015
     FM241500 35005KT P6SM VCSH OVC015
     FM242300 02009KT P6SM BKN019=

USA.gov is the U.S. government's official web portal to all federal, state and local government web resources and services.